Home   Weather   USA   Germantown   Past weeks
Flag for USA

Past Weather in Germantown, Maryland, USA — Yesterday and Last 2 Weeks

Currently: 66 °F. Light rain. Cloudy. (Weather station: Frederick Municipal Airport, USA). See more current weather

Past Weather in Germantown — Graph

°F

Germantown Temperature Yesterday

Maximum temperature yesterday: 93 °F (at 2:47 pm)
Minimum temperature yesterday: 70 °F (at 11:15 pm)
Average temperature yesterday: 79 °F

High & Low Weather Summary for the Past Weeks

 TemperatureHumidityPressure
High93 °F (Jun 20, 4:47 pm)100% (Jun 10, 2:15 am)30.11 "Hg (Jun 10, 2:15 am)
Low50 °F (Jun 17, 5:55 am)21% (Jun 17, 4:47 pm)29.61 "Hg (Jun 21, 4:47 pm)
Average72 °F79%29.91 "Hg
* Reported Jun 7 10:47 am — Jun 22 10:01 am, Germantown. Weather by CustomWeather, © 2021

Note: Actual official high and low records may vary slightly from our data, if they occured in-between our weather recording intervals... More about our weather records

Germantown Weather History for the Previous 24 Hours

Scroll right to see more
 ConditionsComfort  
Time TempWeatherWind HumidityBarometerVisibility
10:01 am
Tue, Jun 22
66 °FLight rain. Cloudy.3 mph94%29.82 "Hg7 mi
8:47 am68 °FOvercast.7 mph88%29.80 "Hg10 mi
7:47 am70 °FOvercast.3 mph88%29.77 "Hg10 mi
6:47 am72 °FOvercast.8 mph88%29.74 "Hg10 mi
6:15 am70 °FCloudy.No wind100%29.72 "Hg10 mi
5:55 am70 °FLight rain. Broken clouds.3 mph94%29.71 "Hg10 mi
5:35 am68 °FPartly cloudy.No wind100%29.70 "Hg10 mi
5:15 am68 °FLight rain. Passing clouds.No wind100%29.70 "Hg7 mi
4:55 am68 °FPassing clouds.No wind100%29.70 "Hg7 mi
4:35 am68 °FFog.No wind100%29.69 "Hg2 mi
3:55 am68 °FClear.3 mph100%29.70 "Hg7 mi
3:35 am70 °FPassing clouds.No wind94%29.70 "Hg10 mi
3:15 am68 °FPassing clouds.No wind100%29.70 "Hg10 mi
2:55 am70 °FPassing clouds.No wind94%29.69 "Hg10 mi
2:15 am70 °FClear.3 mph100%29.68 "Hg10 mi
1:55 am70 °FFog.No wind94%29.68 "Hg3 mi
1:35 am70 °FPassing clouds.3 mph100%29.68 "Hg10 mi
1:15 am70 °FClear.No wind100%29.68 "Hg10 mi
12:55 am72 °FClear.5 mph94%29.68 "Hg10 mi
12:35 am72 °FClear.5 mph94%29.69 "Hg10 mi
12:15 am72 °FClear.6 mph94%29.69 "Hg10 mi
11:55 pm
Mon, Jun 21
72 °FPassing clouds.6 mph94%29.71 "Hg10 mi
11:35 pm72 °FPassing clouds.6 mph94%29.72 "Hg10 mi
11:15 pm70 °FClear.3 mph100%29.70 "Hg10 mi
10:55 pm72 °FClear.3 mph94%29.71 "Hg10 mi
10:35 pm72 °FPassing clouds.3 mph94%29.72 "Hg10 mi
10:15 pm72 °FLight rain. Partly cloudy.No wind94%29.74 "Hg10 mi
9:55 pm72 °FStrong thunderstorms. Overcast.8 mph94%29.76 "Hg3 mi
9:35 pm72 °FOvercast.7 mph100%29.72 "Hg10 mi
9:15 pm72 °FPartly cloudy.No wind100%29.68 "Hg10 mi
8:47 pm73 °FClear.No wind100%29.67 "Hg10 mi
7:47 pm73 °FOvercast.5 mph94%29.66 "Hg10 mi
6:47 pm73 °FBroken clouds.5 mph94%29.66 "Hg10 mi
5:47 pm86 °FThundershowers. Broken clouds.No wind62%29.68 "Hg7 mi
5:22 pm86 °FStrong thunderstorms. Cloudy.17 mph62%29.69 "Hg2 mi
5:10 pm86 °FThunderstorms. Cloudy.23 mph62%29.68 "Hg5 mi
4:47 pm91 °FBroken clouds.7 mph49%29.61 "Hg10 mi
3:47 pm91 °FBroken clouds.13 mph49%29.64 "Hg10 mi
2:47 pm93 °FScattered clouds.13 mph47%29.65 "Hg10 mi
1:47 pm91 °FPartly sunny.8 mph49%29.69 "Hg10 mi
12:47 pm90 °FScattered clouds.8 mph52%29.71 "Hg10 mi
11:47 am88 °FSunny.5 mph59%29.71 "Hg10 mi
Weather by CustomWeather, © 2021

See weather overview